Ann Arbor, MI

4:25 AM EDT on April 19, 2015 (GMT -0400)
Willow Run | | Change Station
CLOSE
Current Station
Airport
Location: Ypsilanti,
Elevation: 715 ft
Nearby Weather Stations

Elev 715 ft 42.24 °N, 83.53 °W | Updated 32 minutes ago

Clear
Clear
46 °F
Feels Like 41 °F
N
9
Wind Variable Wind from NE

Today
High -- | Low -- °F
--% Chance of Precip.
Yesterday
High -- | Low -- °F
Precip. -- in
6:48 AM 8:20 PM
New Moon, 0% visible
Pressure 30.08 in
Visibility 10.0 miles
Clouds Clear
Windchill 41 °F
Dew Point 32 °F
Humidity 58%
Rainfall 0.00 in
Snow Depth Not available.
UV 0 out of 12
Pollen 8.80 out of 12
Air Quality Not available.
Flu Activity Regional
METAR KYIP 190753Z AUTO 05008KT 10SM CLR 08/00 A3008 RMK AO2 SLP184 T00780000 TSNO

More Conditions Fewer Conditions

Pressure 30.08 in
Visibility 10.0 miles
Clouds Clear
Windchill 41 °F
Dew Point 32 °F
Humidity 58%
Rainfall 0.00 in
Snow Depth Not available.
UV 0 out of 12
Pollen 8.80 out of 12
Air Quality Not available.
Flu Activity Regional
METAR KYIP 190753Z AUTO 05008KT 10SM CLR 08/00 A3008 RMK AO2 SLP184 T00780000 TSNO

More Conditions Fewer Conditions

10-Day Weather Forecast

Almanac

Astronomy

Apr. 19, 2015 Rise Set
Actual Time
Civil Twilight
Nautical Twilight
Astronomical Twilight
Moon
Length of Visible Light
Length of Day
Tomorrow will be .
, % of the Moon is Illuminated

Today's Extremes

State Highs State Lows

Community

WunderPhotos

Upload Photos

1,814,723 photos uploaded!

WunderBlogs® & News

Nearby

Air Quality

  Air Quality AQ Index Pollutant
Not available.

Snow Depth

Station Depth Elevation

Earthquake Activity

City Distance Mag. Time & Date
Minimum magnitude displayed is 2.5.

Coastal Water Temperatures

Place Temperature

Stations

Nearby Weather Stations

Station Location Temp. Windchill Dew Point Humidity Wind Precip. Elev Updated Type